Bookmark and Share
Track history (hours):
 

Kohju

Last reported at 2014-Apr-23 14:33 UTC. Time now 2014-Apr-23 15:26 UTC.
Position N 54°52' E 005°19'.

Length 289 m; draft 10.3 m.

Type: Cargo ship. MMSI: 357349000.

NotesDate/timePositionNaut miles runAvg speedWind from/ knotsBaromVisibWave heightAir tempDewpointWater temp
2014-Apr-23 14:33N 54°52' E 005°19'1513.2
2014-Apr-23 13:25N 55°05' E 005°33'21413.1
2014-Apr-22 21:04N 57°45' E 009°51'814.0
2014-Apr-22 20:28N 57°46' E 010°06'1314.4
2014-Apr-22 19:34N 57°47' E 010°30'10 9.8
2014-Apr-22 18:33N 57°42' E 010°46'5 5.3
2014-Apr-22 17:33N 57°39' E 010°38'0 0.0
2014-Apr-22 16:33N 57°39' E 010°38'0 0.0
2014-Apr-22 15:21N 57°39' E 010°38'0 0.0
2014-Apr-22 14:09N 57°39' E 010°38'0 0.1
2014-Apr-22 13:33N 57°39' E 010°38'0 0.0
2014-Apr-22 12:33N 57°39' E 010°38'0 0.0
2014-Apr-22 11:28N 57°39' E 010°38'0 0.1
2014-Apr-22 10:28N 57°39' E 010°38'0 0.0
2014-Apr-22 09:28N 57°39' E 010°38'0 0.1
2014-Apr-22 07:31N 57°39' E 010°38'0 0.1
2014-Apr-22 06:28N 57°39' E 010°38'0 0.0
2014-Apr-22 05:33N 57°39' E 010°38'0 0.1
2014-Apr-22 04:33N 57°39' E 010°38'0 0.1
2014-Apr-22 03:30N 57°39' E 010°38'0 0.0
2014-Apr-22 02:33N 57°39' E 010°38'0 0.3
2014-Apr-22 01:33N 57°39' E 010°39'2 2.5
2014-Apr-22 00:33N 57°37' E 010°42'1414.3
2014-Apr-21 23:33N 57°32' E 011°07'1413.6
2014-Apr-21 22:33N 57°24' E 011°28'1414.4
2014-Apr-21 21:33N 57°11' E 011°37'1414.3
2014-Apr-21 20:33N 56°57' E 011°45'1413.5
2014-Apr-21 19:33N 56°44' E 011°51'  
2014-Apr-16 17:03N 55°54' E 010°50'6311.4
2014-Apr-16 11:33N 56°46' E 011°50'1212.3
2014-Apr-16 10:33N 56°58' E 011°44'1212.2
2014-Apr-16 09:33N 57°10' E 011°36'1312.6
2014-Apr-16 08:33N 57°21' E 011°28'1212.1
2014-Apr-16 07:33N 57°31' E 011°15'1212.2
2014-Apr-16 06:33N 57°36' E 010°54'6 5.1
2014-Apr-16 05:27N 57°40' E 010°47'0 0.0
2014-Apr-16 04:30N 57°40' E 010°47'0 0.0
2014-Apr-16 03:33N 57°40' E 010°47'0 0.0
2014-Apr-16 02:30N 57°40' E 010°47'0 0.0
2014-Apr-16 01:33N 57°40' E 010°47'0 0.0
2014-Apr-16 00:33N 57°40' E 010°47'0 0.0
2014-Apr-15 23:33N 57°40' E 010°47'0 0.0
2014-Apr-15 22:30N 57°40' E 010°47'0 0.0
2014-Apr-15 21:33N 57°40' E 010°47'0 0.1
2014-Apr-15 20:33N 57°40' E 010°47'5 4.6
2014-Apr-15 19:33N 57°45' E 010°45'8 7.7
2014-Apr-15 18:33N 57°47' E 010°31'1212.0
2014-Apr-15 17:33N 57°45' E 010°09'2711.8
2014-Apr-15 15:15N 57°42' E 009°19'86 9.9
2014-Apr-15 06:32N 56°54' E 007°05'325 9.0
2014-Apr-13 18:33N 52°08' E 002°41'2210.9
2014-Apr-13 16:31N 51°46' E 002°36'1111.9
2014-Apr-13 15:33N 51°38' E 002°23'1312.6
2014-Apr-13 14:33N 51°29' E 002°10'  

Dump ship's entire track history

sailing weather and tide predictions

Kohju — H3XI — position and weather